This is the latest recevied weather packets stored in our database for station/object WBKK. If no packets are shown the sender has not sent any weather packets the latest 10 day(s).
| Time | Temp. | Humidity | Pressure | Rain* | Wind** | Luminosity | Snow |
|---|---|---|---|---|---|---|---|
| 1778251269 | 25° C | 94% | 1008 hPa | - | - | - | - |
| 1778249561 | 25° C | 94% | 1008 hPa | - | - | - | - |
| 1778247670 | 25.56° C | 94% | 1008 hPa | - | - | - | - |
| 1778245933 | 25.56° C | 94% | 1008 hPa | - | - | - | - |
| 1778244068 | 25.56° C | 94% | 1007 hPa | - | - | - | - |
| 1778242334 | 25.56° C | 94% | 1007 hPa | - | - | - | - |
| 1778240466 | 25.56° C | 94% | 1007 hPa | - | - | - | - |
| 1778238734 | 25.56° C | 94% | 1007 hPa | - | - | - | - |
| 1778238066 | 25.56° C | 94% | 1006 hPa | - | - | - | - |
| 1778236869 | 26.67° C | 88% | 1006 hPa | - | - | - | - |
| 1778235161 | 26.67° C | 88% | 1006 hPa | - | - | - | - |
| 1778233267 | 26.67° C | 88% | 1006 hPa | - | - | - | - |
| 1778231533 | 26.67° C | 88% | 1006 hPa | - | - | - | - |
| 1778229667 | 26.67° C | 88% | 1006 hPa | - | - | - | - |
| 1778227933 | 25.56° C | 94% | 1006 hPa | - | - | - | - |
| 1778226069 | 25° C | 94% | 1006 hPa | - | - | - | - |
| 1778224334 | 25° C | 94% | 1006 hPa | - | - | - | - |
| 1778222469 | 26.67° C | 88% | 1006 hPa | - | - | - | - |
| 1778220761 | 28.89° C | 83% | 1006 hPa | - | - | - | - |
| 1778219455 | 30° C | 84% | 1006 hPa | - | - | - | - |
| 1778218867 | 30° C | 84% | 1006 hPa | - | - | - | - |
| 1778217133 | 30.56° C | 74% | 1006 hPa | - | - | - | - |
| 1778215267 | 30.56° C | 74% | 1007 hPa | - | - | - | - |
| 1778213533 | 31.67° C | 74% | 1007 hPa | - | - | - | - |
| 1778211666 | 31.67° C | 74% | 1007 hPa | - | - | - | - |
* Rain since midnight (hover to see other rain measurements)
** Current wind speed in m/s (hover to see current wind gust speed)